createdAt,value
2023-04-21T00:00:08.364Z,61.61
2023-04-21T00:02:39.794Z,61.36
2023-04-21T00:05:14.127Z,61.25
2023-04-21T00:07:41.911Z,61.71
2023-04-21T00:10:10.383Z,61.34
2023-04-21T00:12:38.548Z,61.71
2023-04-21T00:15:06.268Z,61.17
2023-04-21T00:17:33.318Z,61.30
2023-04-21T00:20:00.250Z,61.17
2023-04-21T00:22:27.359Z,60.68
2023-04-21T00:24:54.239Z,60.43
2023-04-21T00:27:21.362Z,60.54
2023-04-21T00:29:49.330Z,60.32
2023-04-21T00:32:16.395Z,59.94
2023-04-21T00:34:43.535Z,60.81
2023-04-21T00:37:12.261Z,59.80
2023-04-21T00:39:39.908Z,60.29
2023-04-21T00:42:06.938Z,60.44
2023-04-21T00:44:35.827Z,60.20
2023-04-21T00:47:04.026Z,59.82
2023-04-21T00:49:31.095Z,60.06
2023-04-21T00:51:58.671Z,60.76
2023-04-21T00:54:28.816Z,60.36
2023-04-21T00:56:58.619Z,60.42
2023-04-21T00:59:28.269Z,60.29
2023-04-21T01:01:56.926Z,60.71
2023-04-21T01:04:24.164Z,60.35
2023-04-21T01:06:51.917Z,59.94
2023-04-21T01:09:19.315Z,59.93
2023-04-21T01:12:08.841Z,59.71
2023-04-21T01:14:37.571Z,59.67
2023-04-21T01:17:06.371Z,59.44
2023-04-21T01:19:39.492Z,60.33
2023-04-21T01:22:11.266Z,59.57
2023-04-21T01:24:42.455Z,60.45
2023-04-21T01:27:20.192Z,59.71
2023-04-21T01:29:51.687Z,59.78
2023-04-21T01:32:24.310Z,59.89
2023-04-21T01:34:53.406Z,59.70
2023-04-21T01:37:22.833Z,60.06
2023-04-21T01:39:54.523Z,60.09
2023-04-21T01:42:24.030Z,59.85
2023-04-21T01:44:53.649Z,59.73
2023-04-21T01:47:21.713Z,59.35
2023-04-21T01:49:48.704Z,60.22
2023-04-21T01:52:16.095Z,60.07
2023-04-21T01:54:43.641Z,59.57
2023-04-21T01:57:11.050Z,60.77
2023-04-21T01:59:38.233Z,59.88
2023-04-21T02:02:07.350Z,60.18
2023-04-21T02:04:34.587Z,59.77
2023-04-21T02:07:02.835Z,60.26
2023-04-21T02:09:29.954Z,60.03
2023-04-21T02:11:57.349Z,60.37
2023-04-21T02:14:25.748Z,60.43
2023-04-21T02:16:53.406Z,60.11
2023-04-21T02:19:22.380Z,60.86
2023-04-21T02:21:49.730Z,60.65
2023-04-21T02:24:16.834Z,60.38
2023-04-21T02:26:46.274Z,60.66
2023-04-21T02:29:13.473Z,61.18
2023-04-21T02:31:54.336Z,60.43
2023-04-21T02:34:26.215Z,60.86
2023-04-21T02:36:53.218Z,61.04
2023-04-21T02:39:20.459Z,61.01
2023-04-21T02:41:47.511Z,61.00
2023-04-21T02:44:14.553Z,61.05
2023-04-21T02:46:42.086Z,60.89
2023-04-21T02:49:09.732Z,61.04
2023-04-21T02:51:37.146Z,60.58
2023-04-21T02:54:04.184Z,61.08
2023-04-21T02:56:32.109Z,60.98
2023-04-21T02:58:59.053Z,62.30
2023-04-21T03:01:26.119Z,61.19
2023-04-21T03:03:53.235Z,61.55
2023-04-21T03:06:20.841Z,61.09
2023-04-21T03:08:47.850Z,61.41
2023-04-21T03:11:14.924Z,61.14
2023-04-21T03:13:41.969Z,61.54
2023-04-21T03:16:08.949Z,61.40
2023-04-21T03:18:36.475Z,61.03
2023-04-21T03:21:03.583Z,61.18
2023-04-21T03:23:30.789Z,61.89
2023-04-21T03:25:57.770Z,61.50
2023-04-21T03:28:26.313Z,61.55
2023-04-21T03:30:53.193Z,61.17
2023-04-21T03:33:20.117Z,61.14
2023-04-21T03:35:47.152Z,61.00
2023-04-21T03:38:14.084Z,61.06
2023-04-21T03:40:41.071Z,61.55
2023-04-21T03:43:08.064Z,61.55
2023-04-21T03:45:38.215Z,61.25
2023-04-21T03:48:05.652Z,61.30
2023-04-21T03:50:32.666Z,61.28
2023-04-21T03:52:59.623Z,61.50
2023-04-21T03:55:26.491Z,61.54
2023-04-21T03:57:53.550Z,61.55
2023-04-21T04:00:21.297Z,61.18
2023-04-21T04:02:48.479Z,62.07
2023-04-21T04:05:15.719Z,61.53
2023-04-21T04:07:42.772Z,61.63
2023-04-21T04:10:09.680Z,61.76
2023-04-21T04:12:36.848Z,61.66
2023-04-21T04:15:04.029Z,61.22
2023-04-21T04:17:31.055Z,61.33
2023-04-21T04:19:58.025Z,61.06
2023-04-21T04:22:24.946Z,61.28
2023-04-21T04:24:53.285Z,61.77
2023-04-21T04:27:21.773Z,61.35
2023-04-21T04:29:49.463Z,62.23
2023-04-21T04:32:16.428Z,62.05
2023-04-21T04:34:43.440Z,62.12
2023-04-21T04:37:11.377Z,61.93
2023-04-21T04:39:38.342Z,62.21
2023-04-21T04:42:11.971Z,61.86
2023-04-21T04:44:38.981Z,61.88
2023-04-21T04:47:06.282Z,62.83
2023-04-21T04:49:33.415Z,62.17
2023-04-21T04:52:02.019Z,62.06
2023-04-21T04:54:29.385Z,61.99
2023-04-21T04:56:58.018Z,61.97
2023-04-21T04:59:25.092Z,61.65
2023-04-21T05:01:52.675Z,61.62
2023-04-21T05:04:20.769Z,61.75
2023-04-21T05:06:48.190Z,62.38
2023-04-21T05:09:15.080Z,62.90
2023-04-21T05:11:42.014Z,62.93
2023-04-21T05:14:09.080Z,62.07
2023-04-21T05:16:36.064Z,61.82
2023-04-21T05:19:03.931Z,62.35
2023-04-21T05:21:31.504Z,62.86
2023-04-21T05:23:59.515Z,62.22
2023-04-21T05:26:27.773Z,62.52
2023-04-21T05:28:56.689Z,61.93
2023-04-21T05:31:24.955Z,62.00
2023-04-21T05:33:52.420Z,61.74
2023-04-21T05:36:22.254Z,61.43
2023-04-21T05:38:49.269Z,61.00
2023-04-21T05:41:16.382Z,61.92
2023-04-21T05:43:43.392Z,61.54
2023-04-21T05:46:11.278Z,60.66
2023-04-21T05:48:38.427Z,60.41
2023-04-21T05:51:12.573Z,61.46
2023-04-21T05:53:40.097Z,60.75
2023-04-21T05:56:09.410Z,60.72
2023-04-21T05:58:37.266Z,59.99
2023-04-21T06:01:05.183Z,60.06
2023-04-21T06:03:33.090Z,59.55
2023-04-21T06:06:01.459Z,58.86
2023-04-21T06:08:28.546Z,57.60
2023-04-21T06:10:55.623Z,57.33
2023-04-21T06:13:22.620Z,56.97
2023-04-21T06:15:49.664Z,56.44
2023-04-21T06:18:17.071Z,55.97
2023-04-21T06:20:51.241Z,55.59
2023-04-21T06:23:18.442Z,54.96
2023-04-21T06:25:45.458Z,55.06
2023-04-21T06:28:12.500Z,54.59
2023-04-21T06:30:39.539Z,54.41
2023-04-21T06:33:06.935Z,53.97
2023-04-21T06:35:34.210Z,53.79
2023-04-21T06:38:01.216Z,52.51
2023-04-21T06:40:28.140Z,52.29
2023-04-21T06:42:55.135Z,50.17
2023-04-21T06:45:23.272Z,48.88
2023-04-21T06:47:50.281Z,47.02
2023-04-21T06:50:17.254Z,45.43
2023-04-21T06:52:44.255Z,43.56
2023-04-21T06:55:11.546Z,42.37
2023-04-21T06:57:38.645Z,40.96
2023-04-21T07:00:06.222Z,40.02
2023-04-21T07:02:33.196Z,39.25
2023-04-21T07:05:00.136Z,38.80
2023-04-21T07:07:27.260Z,37.29
2023-04-21T07:09:54.152Z,36.75
2023-04-21T07:12:21.464Z,36.03
2023-04-21T07:14:48.417Z,35.79
2023-04-21T07:17:15.458Z,35.58
2023-04-21T07:19:42.431Z,34.35
2023-04-21T07:22:09.355Z,34.49
2023-04-21T07:24:37.877Z,35.01
2023-04-21T07:27:04.898Z,34.32
2023-04-21T07:29:31.999Z,34.21
2023-04-21T07:31:58.897Z,34.20
2023-04-21T07:34:26.031Z,33.39
2023-04-21T07:36:53.376Z,33.52
2023-04-21T07:39:20.499Z,33.81
2023-04-21T07:41:48.197Z,34.12
2023-04-21T07:44:15.159Z,34.26
2023-04-21T07:46:42.202Z,35.17
2023-04-21T07:49:09.190Z,35.94
2023-04-21T07:51:36.357Z,36.75
2023-04-21T07:54:03.377Z,37.54
2023-04-21T07:56:30.640Z,37.71
2023-04-21T07:58:57.516Z,38.15
2023-04-21T08:01:24.396Z,38.66
2023-04-21T08:03:51.584Z,39.41
2023-04-21T08:06:18.639Z,40.24
2023-04-21T08:08:45.718Z,40.40
2023-04-21T08:11:12.746Z,39.69
2023-04-21T08:13:39.661Z,39.44
2023-04-21T08:16:06.759Z,40.01
2023-04-21T08:18:33.758Z,40.45
2023-04-21T08:21:00.851Z,40.02
2023-04-21T08:23:31.769Z,39.01
2023-04-21T08:25:59.361Z,38.33
2023-04-21T08:28:26.278Z,38.75
2023-04-21T08:30:53.192Z,39.14
2023-04-21T08:33:20.182Z,39.81
2023-04-21T08:35:59.208Z,39.99
2023-04-21T08:38:29.875Z,40.33
2023-04-21T08:41:00.045Z,40.74
2023-04-21T08:43:29.094Z,40.50
2023-04-21T08:45:56.546Z,40.68
2023-04-21T08:48:25.149Z,39.67
2023-04-21T08:50:53.899Z,39.41
2023-04-21T08:53:21.007Z,38.52
2023-04-21T08:56:03.109Z,38.33
2023-04-21T08:58:37.540Z,37.63
2023-04-21T09:01:04.503Z,36.75
2023-04-21T09:03:31.903Z,36.90
2023-04-21T09:06:08.471Z,36.71
2023-04-21T09:08:44.924Z,37.83
2023-04-21T09:11:15.271Z,37.16
2023-04-21T09:13:43.447Z,36.30
2023-04-21T09:16:22.445Z,34.33
2023-04-21T09:18:51.695Z,34.58
2023-04-21T09:21:21.322Z,34.16
2023-04-21T09:23:50.308Z,34.34
2023-04-21T09:26:22.762Z,33.79
2023-04-21T09:28:53.272Z,33.23
2023-04-21T09:31:24.920Z,34.35
2023-04-21T09:34:00.350Z,33.29
2023-04-21T09:36:30.712Z,34.50
2023-04-21T09:39:29.057Z,35.13
2023-04-21T09:41:50.158Z,35.51
2023-04-21T09:44:18.408Z,36.11
2023-04-21T09:46:49.880Z,36.11
2023-04-21T09:49:18.545Z,36.75
2023-04-21T09:54:29.020Z,38.54
2023-04-21T09:57:03.834Z,38.46
2023-04-21T09:59:40.854Z,40.11
2023-04-21T10:02:09.931Z,40.08
2023-04-21T10:04:38.383Z,40.51
2023-04-21T10:07:06.754Z,40.69
2023-04-21T10:10:01.048Z,41.44
2023-04-21T10:12:28.600Z,41.74
2023-04-21T10:14:57.078Z,43.03
2023-04-21T10:17:26.215Z,43.08
2023-04-21T10:19:57.368Z,44.12
2023-04-21T10:22:33.337Z,44.84
2023-04-21T10:25:04.796Z,45.43
2023-04-21T10:27:42.074Z,46.16
2023-04-21T10:30:19.183Z,45.89
2023-04-21T10:32:46.839Z,45.00
2023-04-21T10:35:22.513Z,44.90
2023-04-21T10:37:52.169Z,45.47
2023-04-21T10:40:43.114Z,45.48
2023-04-21T10:43:51.146Z,48.26
2023-04-21T10:46:38.417Z,47.97
2023-04-21T10:49:13.178Z,48.26
2023-04-21T10:51:58.532Z,47.41
2023-04-21T10:54:50.071Z,47.93
2023-04-21T10:57:18.691Z,47.28
2023-04-21T10:59:47.284Z,47.53
2023-04-21T11:02:16.033Z,47.43
2023-04-21T11:04:48.767Z,47.75
2023-04-21T11:07:26.123Z,48.32
2023-04-21T11:10:07.813Z,46.71
2023-04-21T11:12:38.461Z,46.98
2023-04-21T11:15:08.187Z,48.29
2023-04-21T11:17:36.461Z,48.42
2023-04-21T11:20:08.152Z,48.89
2023-04-21T11:22:37.390Z,49.53
2023-04-21T11:25:04.708Z,49.93
2023-04-21T11:27:31.651Z,50.04
2023-04-21T11:29:58.749Z,49.21
2023-04-21T11:32:25.908Z,50.02
2023-04-21T11:34:52.893Z,50.81
2023-04-21T11:37:30.111Z,50.60
2023-04-21T11:40:01.138Z,50.28
2023-04-21T11:42:28.675Z,50.16
2023-04-21T11:44:56.823Z,50.29
2023-04-21T11:47:26.614Z,51.39
2023-04-21T11:49:56.388Z,51.39
2023-04-21T11:52:33.907Z,51.39
2023-04-21T11:55:03.592Z,50.69
2023-04-21T11:57:32.699Z,50.60
2023-04-21T12:00:06.699Z,48.90
2023-04-21T12:02:34.448Z,49.30
2023-04-21T12:05:05.089Z,49.80
2023-04-21T12:07:42.081Z,49.88
2023-04-21T12:10:22.072Z,49.15
2023-04-21T12:12:49.198Z,49.25
2023-04-21T12:15:21.712Z,48.52
2023-04-21T12:17:51.439Z,47.43
2023-04-21T12:20:20.608Z,46.80
2023-04-21T12:22:48.611Z,46.52
2023-04-21T12:25:16.051Z,46.12
2023-04-21T12:27:53.301Z,45.34
2023-04-21T12:30:21.218Z,47.68
2023-04-21T12:32:48.469Z,48.97
2023-04-21T12:35:16.019Z,49.04
2023-04-21T12:37:43.152Z,49.98
2023-04-21T12:40:10.749Z,50.33
2023-04-21T12:42:38.565Z,51.30
2023-04-21T12:45:06.623Z,51.03
2023-04-21T12:47:34.989Z,51.44
2023-04-21T12:50:01.999Z,51.71
2023-04-21T12:52:29.232Z,52.16
2023-04-21T12:54:56.228Z,52.15
2023-04-21T12:57:23.161Z,52.24
2023-04-21T12:59:50.364Z,52.52
2023-04-21T13:02:17.529Z,52.64
2023-04-21T13:04:44.689Z,52.13
2023-04-21T13:07:11.681Z,51.49
2023-04-21T13:09:39.042Z,49.31
2023-04-21T13:12:06.062Z,48.95
2023-04-21T13:14:33.257Z,47.88
2023-04-21T13:17:00.358Z,48.51
2023-04-21T13:19:28.839Z,48.13
2023-04-21T13:21:56.537Z,47.99
2023-04-21T13:24:23.540Z,47.53
2023-04-21T13:26:50.559Z,49.04
2023-04-21T13:29:17.693Z,50.19
2023-04-21T13:31:44.685Z,50.01
2023-04-21T13:34:11.845Z,51.33
2023-04-21T13:36:39.183Z,50.96
2023-04-21T13:39:09.666Z,49.33
2023-04-21T13:41:36.708Z,49.23
2023-04-21T13:44:03.689Z,50.86
2023-04-21T13:46:31.132Z,51.08
2023-04-21T13:48:59.645Z,51.94
2023-04-21T13:51:26.836Z,51.44
2023-04-21T13:53:53.804Z,52.08
2023-04-21T13:56:20.945Z,52.26
2023-04-21T13:58:47.978Z,51.57
2023-04-21T14:01:15.148Z,52.53
2023-04-21T14:03:42.391Z,52.89
2023-04-21T14:06:09.553Z,53.49
2023-04-21T14:08:36.552Z,53.94
2023-04-21T14:11:04.241Z,53.23
2023-04-21T14:13:39.575Z,53.18
2023-04-21T14:16:09.591Z,51.75
2023-04-21T14:18:38.450Z,50.63
2023-04-21T14:21:05.579Z,49.84
2023-04-21T14:23:32.583Z,49.64
2023-04-21T14:25:59.577Z,49.98
2023-04-21T14:28:26.870Z,49.65
2023-04-21T14:30:53.837Z,49.83
2023-04-21T14:33:20.996Z,49.96
2023-04-21T14:35:48.103Z,49.90
2023-04-21T14:38:15.060Z,49.76
2023-04-21T14:40:42.136Z,49.28
2023-04-21T14:43:11.522Z,49.43
2023-04-21T14:45:38.790Z,49.26
2023-04-21T14:48:06.134Z,49.69
2023-04-21T14:50:33.337Z,50.09
2023-04-21T14:53:00.554Z,49.72
2023-04-21T14:55:28.108Z,50.26
2023-04-21T14:57:55.103Z,49.84
2023-04-21T15:00:23.754Z,50.08
2023-04-21T15:02:50.710Z,50.01
2023-04-21T15:05:18.900Z,50.19
2023-04-21T15:07:45.908Z,49.92
2023-04-21T15:10:13.486Z,50.49
2023-04-21T15:12:41.903Z,50.67
2023-04-21T15:15:09.221Z,50.30
2023-04-21T15:17:36.128Z,50.29
2023-04-21T15:20:03.695Z,50.46
2023-04-21T15:22:30.939Z,50.50
2023-04-21T15:24:57.976Z,50.86
2023-04-21T15:27:25.112Z,51.15
2023-04-21T15:29:52.129Z,51.04
2023-04-21T15:32:19.150Z,51.44
2023-04-21T15:34:46.218Z,51.36
2023-04-21T15:37:14.568Z,51.44
2023-04-21T15:39:41.750Z,51.19
2023-04-21T15:42:09.681Z,50.99
2023-04-21T15:44:39.206Z,51.47
2023-04-21T15:47:06.654Z,50.62
2023-04-21T15:49:33.830Z,50.67
2023-04-21T15:52:03.467Z,50.91
2023-04-21T15:54:31.415Z,50.97
2023-04-21T15:56:58.749Z,50.80
2023-04-21T15:59:26.295Z,50.77
2023-04-21T16:01:53.645Z,50.96
2023-04-21T16:04:20.768Z,50.70
2023-04-21T16:06:47.874Z,50.77
2023-04-21T16:09:14.816Z,51.57
2023-04-21T16:11:42.541Z,51.18
2023-04-21T16:14:09.611Z,50.93
2023-04-21T16:16:39.495Z,50.47
2023-04-21T16:19:06.561Z,50.54
2023-04-21T16:21:33.532Z,50.61
2023-04-21T16:24:00.675Z,50.51
2023-04-21T16:26:27.724Z,49.58
2023-04-21T16:28:55.742Z,49.42
2023-04-21T16:31:22.793Z,49.67
2023-04-21T16:33:51.436Z,48.16
2023-04-21T16:36:18.684Z,48.30
2023-04-21T16:38:45.725Z,48.90
2023-04-21T16:41:12.862Z,49.24
2023-04-21T16:43:39.993Z,49.39
2023-04-21T16:46:06.957Z,47.99
2023-04-21T16:48:34.063Z,47.47
2023-04-21T16:51:01.155Z,47.57
2023-04-21T16:53:28.298Z,47.76
2023-04-21T16:55:55.464Z,47.45
2023-04-21T16:58:24.406Z,45.73
2023-04-21T17:00:51.692Z,45.55
2023-04-21T17:03:18.964Z,44.48
2023-04-21T17:05:46.231Z,45.46
2023-04-21T17:08:13.247Z,45.93
2023-04-21T17:10:40.210Z,45.74
2023-04-21T17:13:07.707Z,45.29
2023-04-21T17:15:34.715Z,46.18
2023-04-21T17:18:01.719Z,46.71
2023-04-21T17:20:29.705Z,46.89
2023-04-21T17:22:56.862Z,45.77
2023-04-21T17:25:23.895Z,44.25
2023-04-21T17:27:50.928Z,44.43
2023-04-21T17:30:19.101Z,44.32
2023-04-21T17:32:46.078Z,44.13
2023-04-21T17:35:12.996Z,44.44
2023-04-21T17:37:40.079Z,45.29
2023-04-21T17:40:09.699Z,46.92
2023-04-21T17:42:36.952Z,47.51
2023-04-21T17:45:05.964Z,47.41
2023-04-21T17:47:33.634Z,48.44
2023-04-21T17:50:00.648Z,48.64
2023-04-21T17:52:51.028Z,49.18
2023-04-21T17:55:18.042Z,48.93
2023-04-21T17:57:45.556Z,49.95
2023-04-21T18:00:13.321Z,50.20
2023-04-21T18:02:40.779Z,50.92
2023-04-21T18:05:08.103Z,51.64
2023-04-21T18:07:35.414Z,51.80
2023-04-21T18:10:02.636Z,51.88
2023-04-21T18:12:29.607Z,51.94
2023-04-21T18:14:56.721Z,52.02
2023-04-21T18:17:23.716Z,54.96
2023-04-21T18:19:50.625Z,55.11
2023-04-21T18:22:17.539Z,55.25
2023-04-21T18:24:45.241Z,56.01
2023-04-21T18:27:12.557Z,56.39
2023-04-21T18:29:39.661Z,55.99
2023-04-21T18:32:06.693Z,56.28
2023-04-21T18:34:33.770Z,56.72
2023-04-21T18:37:00.729Z,56.42
2023-04-21T18:39:27.777Z,56.91
2023-04-21T18:41:54.877Z,57.19
2023-04-21T18:44:21.788Z,56.80
2023-04-21T18:46:48.872Z,56.39
2023-04-21T18:49:15.764Z,56.26
2023-04-21T18:51:42.742Z,56.57
2023-04-21T18:54:09.838Z,57.01
2023-04-21T18:56:37.263Z,56.05
2023-04-21T18:59:04.659Z,56.42
2023-04-21T19:01:31.774Z,56.37
2023-04-21T19:03:59.623Z,55.79
2023-04-21T19:06:27.962Z,55.54
2023-04-21T19:08:55.056Z,55.99
2023-04-21T19:11:22.676Z,55.82
2023-04-21T19:13:49.771Z,56.13
2023-04-21T19:16:16.810Z,55.19
2023-04-21T19:18:43.908Z,55.66
2023-04-21T19:21:13.588Z,55.33
2023-04-21T19:23:41.838Z,55.03
2023-04-21T19:26:09.914Z,54.95
2023-04-21T19:28:36.896Z,55.33
2023-04-21T19:31:04.456Z,54.92
2023-04-21T19:33:31.510Z,54.86
2023-04-21T19:35:59.158Z,55.14
2023-04-21T19:38:26.687Z,55.02
2023-04-21T19:40:54.942Z,54.90
2023-04-21T19:43:22.790Z,54.80
2023-04-21T19:45:49.988Z,54.60
2023-04-21T19:48:17.594Z,55.25
2023-04-21T19:50:44.640Z,55.21
2023-04-21T19:53:15.050Z,54.81
2023-04-21T19:55:42.847Z,57.75
2023-04-21T19:58:10.226Z,59.87
2023-04-21T20:00:37.204Z,59.92
2023-04-21T20:03:06.748Z,61.27
2023-04-21T20:05:33.942Z,61.08
2023-04-21T20:08:01.224Z,60.32
2023-04-21T20:10:28.280Z,60.94
2023-04-21T20:12:55.284Z,64.73
2023-04-21T20:15:23.109Z,64.79
2023-04-21T20:17:50.140Z,65.24
2023-04-21T20:20:17.706Z,64.93
2023-04-21T20:22:44.796Z,64.54
2023-04-21T20:25:12.959Z,64.79
2023-04-21T20:27:40.059Z,65.87
2023-04-21T20:30:08.076Z,65.14
2023-04-21T20:32:35.186Z,67.35
2023-04-21T20:35:02.349Z,68.04
2023-04-21T20:37:29.790Z,66.83
2023-04-21T20:39:57.265Z,65.99
2023-04-21T20:42:24.309Z,65.87
2023-04-21T20:44:51.292Z,65.28
2023-04-21T20:47:18.461Z,65.68
2023-04-21T20:49:47.740Z,64.62
2023-04-21T20:52:17.504Z,65.07
2023-04-21T20:54:44.503Z,65.38
2023-04-21T20:57:12.289Z,65.38
2023-04-21T20:59:39.680Z,65.85
2023-04-21T21:02:07.627Z,65.33
2023-04-21T21:04:35.112Z,65.37
2023-04-21T21:07:03.995Z,64.87
2023-04-21T21:09:31.488Z,64.12
2023-04-21T21:11:58.758Z,64.76
2023-04-21T21:14:27.763Z,65.61
2023-04-21T21:16:55.458Z,65.61
2023-04-21T21:19:25.747Z,65.73
2023-04-21T21:21:52.961Z,66.01
2023-04-21T21:24:20.170Z,66.43
2023-04-21T21:26:47.343Z,67.75
2023-04-21T21:29:14.577Z,69.16
2023-04-21T21:31:41.754Z,69.07
2023-04-21T21:34:08.979Z,68.77
2023-04-21T21:36:36.238Z,68.79
2023-04-21T21:39:03.592Z,69.70
2023-04-21T21:41:30.921Z,70.07
2023-04-21T21:43:57.877Z,68.82
2023-04-21T21:46:24.900Z,69.36
2023-04-21T21:48:51.975Z,69.63
2023-04-21T21:51:20.230Z,69.08
2023-04-21T21:53:47.330Z,69.05
2023-04-21T21:56:14.650Z,67.26
2023-04-21T21:58:41.989Z,67.13
2023-04-21T22:01:10.219Z,68.01
2023-04-21T22:03:40.702Z,68.99
2023-04-21T22:06:08.288Z,69.71
2023-04-21T22:08:35.435Z,67.83
2023-04-21T22:11:03.827Z,66.93
2023-04-21T22:13:30.839Z,66.96
2023-04-21T22:15:57.807Z,65.77
2023-04-21T22:18:24.875Z,64.53
2023-04-21T22:20:52.331Z,63.17
2023-04-21T22:23:21.467Z,62.36
2023-04-21T22:25:48.534Z,61.19
2023-04-21T22:28:15.487Z,60.59
2023-04-21T22:30:43.056Z,60.01
2023-04-21T22:33:10.372Z,60.17
2023-04-21T22:35:37.980Z,59.87
2023-04-21T22:38:05.709Z,59.39
2023-04-21T22:40:36.356Z,59.32
2023-04-21T22:43:03.932Z,59.60
2023-04-21T22:45:30.870Z,58.69
2023-04-21T22:47:58.008Z,58.92
2023-04-21T22:50:25.704Z,58.68
2023-04-21T22:52:52.882Z,58.42
2023-04-21T22:55:22.982Z,58.51
2023-04-21T22:57:50.173Z,58.30
2023-04-21T23:00:17.414Z,58.22
2023-04-21T23:02:44.442Z,58.01
2023-04-21T23:05:11.545Z,57.83
2023-04-21T23:07:38.697Z,57.43
2023-04-21T23:10:06.004Z,57.66
2023-04-21T23:12:33.481Z,57.26
2023-04-21T23:15:00.443Z,56.98
2023-04-21T23:17:27.424Z,57.14
2023-04-21T23:19:55.379Z,57.04
2023-04-21T23:22:25.400Z,57.14
2023-04-21T23:24:53.036Z,62.95
2023-04-21T23:27:20.024Z,64.99
2023-04-21T23:29:47.064Z,64.98
2023-04-21T23:32:14.174Z,64.13
2023-04-21T23:34:41.231Z,67.49
2023-04-21T23:37:08.288Z,67.49
2023-04-21T23:39:35.461Z,66.54
2023-04-21T23:42:04.465Z,66.59
2023-04-21T23:44:31.564Z,66.32
2023-04-21T23:46:58.474Z,65.48
2023-04-21T23:49:25.414Z,64.22
2023-04-21T23:51:52.402Z,62.91
2023-04-21T23:54:19.492Z,61.67
2023-04-21T23:56:46.365Z,61.41
2023-04-21T23:59:13.580Z,61.42
